Time,TemperatureF,DewpointF,PressureIn,WindDirection,WindDirectionDegrees,WindSpeedMPH,WindSpeedGustMPH,Humidity,HourlyPrecipIn,Conditions,Clouds,dailyrainin,SoftwareType,DateUTC
2013-07-28 00:29:00,70.8,68.7,29.92,SSW,198,0.0,0.0,93,0.00,,OVC060,0.00,VWS V14.01,2013-07-28 04:29:00,
2013-07-28 00:59:00,70.8,68.7,29.93,SSW,198,0.0,0.0,93,0.00,,OVC060,0.00,VWS V14.01,2013-07-28 04:59:00,
2013-07-28 01:29:00,70.8,68.7,29.92,SSW,198,0.0,1.0,93,0.00,,OVC060,0.00,VWS V14.01,2013-07-28 05:29:00,
2013-07-28 01:59:00,70.8,68.7,29.91,SSW,198,0.0,0.0,93,0.00,,OVC060,0.00,VWS V14.01,2013-07-28 05:59:00,
2013-07-28 02:29:00,69.4,67.3,29.92,SSW,198,0.0,2.0,93,0.00,,FEW043,0.00,VWS V14.01,2013-07-28 06:29:00,
2013-07-28 02:59:00,69.4,67.3,29.90,SSW,198,0.0,2.0,93,0.00,,FEW043,0.00,VWS V14.01,2013-07-28 06:59:00,
2013-07-28 03:29:00,69.1,68.2,29.91,SSW,198,0.0,2.0,97,0.00,,FEW031,0.00,VWS V14.01,2013-07-28 07:29:00,
2013-07-28 03:59:00,69.3,68.4,29.91,SW,224,1.0,5.0,97,0.00,,FEW031,0.00,VWS V14.01,2013-07-28 07:59:00,
2013-07-28 04:29:00,69.3,68.4,29.91,SSW,198,2.0,5.0,97,0.00,,FEW041,0.00,VWS V14.01,2013-07-28 08:29:00,
2013-07-28 04:59:00,69.1,68.2,29.91,SW,217,0.0,6.0,97,0.00,,FEW041,0.00,VWS V14.01,2013-07-28 08:59:00,
2013-07-28 05:29:00,69.1,68.2,29.92,SSW,200,0.0,5.0,97,0.00,,BKN110,0.00,VWS V14.01,2013-07-28 09:29:00,
2013-07-28 05:59:00,69.1,67.9,29.93,South,185,0.0,6.0,96,0.00,,BKN110,0.00,VWS V14.01,2013-07-28 09:59:00,
2013-07-28 06:29:00,69.1,67.9,29.93,South,169,0.0,5.0,96,0.00,,BKN110,0.00,VWS V14.01,2013-07-28 10:29:00,
2013-07-28 06:59:00,69.1,67.9,29.93,SW,217,0.0,4.0,96,0.00,,BKN110,0.00,VWS V14.01,2013-07-28 10:59:00,
2013-07-28 07:29:00,69.1,68.2,29.94,SW,217,0.0,2.0,97,0.00,,BKN110,0.00,VWS V14.01,2013-07-28 11:29:00,
2013-07-28 07:59:00,69.4,68.5,29.94,SSW,208,0.0,2.0,97,0.00,,BKN110,0.00,VWS V14.01,2013-07-28 11:59:00,
2013-07-28 08:29:00,70.1,69.2,29.94,SSW,196,0.0,3.0,97,0.00,,BKN110,0.00,VWS V14.01,2013-07-28 12:29:00,
2013-07-28 08:59:00,70.8,69.0,29.94,WNW,302,0.0,3.0,94,0.00,,BKN110,0.00,VWS V14.01,2013-07-28 12:59:00,
2013-07-28 09:29:00,72.8,69.7,29.93,NW,316,0.0,5.0,90,0.00,,OVC120,0.00,VWS V14.01,2013-07-28 13:29:00,
2013-07-28 09:59:00,73.7,69.3,29.92,WNW,285,0.0,5.0,86,0.00,,OVC120,0.00,VWS V14.01,2013-07-28 13:59:00,
2013-07-28 10:29:00,76.7,70.4,29.92,SSE,157,0.0,7.0,81,0.00,,BKN110,0.00,VWS V14.01,2013-07-28 14:29:00,
2013-07-28 10:59:00,79.4,70.8,29.93,SE,143,5.0,7.0,75,0.00,,BKN110,0.00,VWS V14.01,2013-07-28 14:59:00,
2013-07-28 11:29:00,79.0,70.4,29.93,South,179,2.0,5.0,75,0.00,,BKN110,0.00,VWS V14.01,2013-07-28 15:29:00,
2013-07-28 11:59:00,80.7,70.0,29.92,SE,133,0.0,7.0,70,0.00,,BKN110,0.00,VWS V14.01,2013-07-28 15:59:00,
2013-07-28 12:29:00,82.6,69.2,29.93,SSW,202,0.0,7.0,64,0.00,,BKN110,0.00,VWS V14.01,2013-07-28 16:29:00,
2013-07-28 12:59:00,83.6,69.7,29.93,SSW,202,0.0,5.0,63,0.00,,BKN110,0.00,VWS V14.01,2013-07-28 16:59:00,
2013-07-28 13:29:00,84.3,69.9,29.92,SW,233,1.0,8.0,62,0.00,,FEW110,0.00,VWS V14.01,2013-07-28 17:29:00,
2013-07-28 13:59:00,85.7,69.7,29.91,WSW,258,0.0,6.0,59,0.00,,FEW110,0.00,VWS V14.01,2013-07-28 17:59:00,
2013-07-28 14:29:00,84.9,69.5,29.90,SW,229,0.0,8.0,60,0.00,,SCT110,0.00,VWS V14.01,2013-07-28 18:29:00,
2013-07-28 14:59:00,85.9,71.4,29.89,ESE,120,0.0,6.0,62,0.00,,SCT110,0.00,VWS V14.01,2013-07-28 18:59:00,
2013-07-28 15:29:00,83.0,72.2,29.90,SW,220,0.0,9.0,70,0.01,,BKN100,0.01,VWS V14.01,2013-07-28 19:29:00,
2013-07-28 15:59:00,76.0,72.2,29.91,SW,220,0.0,7.0,88,0.04,,BKN100,0.04,VWS V14.01,2013-07-28 19:59:00,
2013-07-28 16:29:00,79.0,71.9,29.90,SSE,155,0.0,2.0,79,0.04,,-RA,0.04,VWS V14.01,2013-07-28 20:29:00,
2013-07-28 16:59:00,80.1,73.0,29.92,SW,220,0.0,5.0,79,0.03,,-RA,0.04,VWS V14.01,2013-07-28 20:59:00,
2013-07-28 17:29:00,77.6,70.9,29.92,SSW,203,1.0,6.0,80,0.00,,CLR,0.04,VWS V14.01,2013-07-28 21:29:00,
2013-07-28 17:59:00,77.0,70.4,29.92,ENE,73,0.0,5.0,80,0.00,,CLR,0.04,VWS V14.01,2013-07-28 21:59:00,
2013-07-28 18:29:00,76.8,70.2,29.92,SSE,161,0.0,2.0,80,0.00,,FEW100,0.04,VWS V14.01,2013-07-28 22:29:00,
2013-07-28 18:59:00,77.0,70.7,29.91,SSE,161,0.0,2.0,81,0.00,,FEW100,0.04,VWS V14.01,2013-07-28 22:59:00,
2013-07-28 19:29:00,76.1,71.3,29.92,SSW,203,0.0,2.0,85,0.00,,OVC100,0.04,VWS V14.01,2013-07-28 23:29:00,
2013-07-28 19:59:00,75.3,71.5,29.93,SSW,205,0.0,0.0,88,0.00,,OVC100,0.04,VWS V14.01,2013-07-28 23:59:00,
2013-07-28 20:29:00,74.7,71.2,29.95,SSW,205,0.0,0.0,89,0.00,,FEW090,0.04,VWS V14.01,2013-07-29 00:29:00,
2013-07-28 20:59:00,73.7,71.2,29.95,SSW,205,0.0,0.0,92,0.00,,CLR,0.04,VWS V14.01,2013-07-29 00:59:00,
2013-07-28 21:29:00,73.2,71.1,29.96,SSW,205,0.0,0.0,93,0.00,,CLR,0.04,VWS V14.01,2013-07-29 01:29:00,
2013-07-28 21:59:00,72.5,71.0,29.96,SSW,205,0.0,0.0,95,0.00,,CLR,0.04,VWS V14.01,2013-07-29 01:59:00,
2013-07-28 22:29:00,72.0,71.1,29.97,SSW,205,0.0,1.0,97,0.00,,CLR,0.04,VWS V14.01,2013-07-29 02:29:00,
2013-07-28 22:59:00,72.0,71.4,29.98,SSE,168,0.0,3.0,98,0.00,,CLR,0.04,VWS V14.01,2013-07-29 02:59:00,
2013-07-28 23:29:00,72.0,71.4,29.98,SSE,168,0.0,0.0,98,0.00,,CLR,0.04,VWS V14.01,2013-07-29 03:29:00,